Time;durP1;ratioP1;P1;durP2;ratioP2;P2;SDS_P1;SDS_P2;PMS_P1;PMS_P2;Temp;Humidity;BMP_temperature;BMP_pressure;BME280_temperature;BME280_humidity;BME280_pressure;Samples;Min_cycle;Max_cycle;Signal;HPM_P1;HPM_P2
2023/08/02 00:01:14;;;;;;;7.50;3.53;;;17.20;99.90;;;;;;6212738;23;20051;-87
2023/08/02 00:03:39;;;;;;;8.98;3.90;;;17.20;99.90;;;;;;6212840;23;20005;-86
2023/08/02 00:06:05;;;;;;;5.97;3.13;;;17.20;99.90;;;;;;6213150;23;20005;-87
2023/08/02 00:08:31;;;;;;;6.18;3.22;;;17.20;99.90;;;;;;6213241;23;20300;-87
2023/08/02 00:10:57;;;;;;;5.80;2.97;;;17.20;99.90;;;;;;6214264;23;20000;-87
2023/08/02 00:13:23;;;;;;;5.65;3.58;;;17.20;99.90;;;;;;6213134;23;20067;-87
2023/08/02 00:15:50;;;;;;;8.23;3.35;;;17.10;99.90;;;;;;6214410;23;20028;-88
2023/08/02 00:18:16;;;;;;;10.73;3.78;;;17.10;99.90;;;;;;6214649;23;20791;-87
2023/08/02 00:20:44;;;;;;;8.20;4.40;;;17.00;99.90;;;;;;6215017;23;20000;-88
2023/08/02 00:23:10;;;;;;;10.32;4.45;;;17.00;99.90;;;;;;6214372;23;19996;-88
2023/08/02 00:25:35;;;;;;;9.25;3.90;;;17.00;99.90;;;;;;6215160;23;20001;-88
2023/08/02 00:28:01;;;;;;;10.63;3.53;;;16.90;99.90;;;;;;6214457;23;20001;-88
2023/08/02 00:30:29;;;;;;;7.55;3.63;;;16.90;99.90;;;;;;6214890;23;20000;-87
2023/08/02 00:32:55;;;;;;;7.68;3.42;;;16.90;99.90;;;;;;6216086;23;19996;-87
2023/08/02 00:35:21;;;;;;;6.88;2.83;;;16.80;99.90;;;;;;6222266;23;20063;-88
2023/08/02 00:37:46;;;;;;;7.80;4.03;;;16.80;99.90;;;;;;6225625;23;20346;-88
2023/08/02 00:40:12;;;;;;;9.07;4.40;;;16.80;99.90;;;;;;6218125;23;20004;-88
2023/08/02 00:42:38;;;;;;;7.82;3.15;;;16.70;99.90;;;;;;6214337;23;20001;-88
2023/08/02 00:45:04;;;;;;;9.15;3.58;;;16.70;99.90;;;;;;6188545;23;20012;-87
2023/08/02 00:47:33;;;;;;;9.63;4.05;;;16.70;99.90;;;;;;6214758;23;20028;-88
2023/08/02 00:50:00;;;;;;;7.40;3.00;;;16.70;99.90;;;;;;6214557;23;20000;-88
2023/08/02 00:52:26;;;;;;;9.73;4.07;;;16.70;99.90;;;;;;6214294;23;20055;-88
2023/08/02 00:54:52;;;;;;;7.20;3.10;;;16.70;99.90;;;;;;6214877;23;20066;-88
2023/08/02 00:57:18;;;;;;;9.85;3.55;;;16.70;99.90;;;;;;6213924;23;20421;-89
2023/08/02 00:59:43;;;;;;;7.70;3.70;;;16.70;99.90;;;;;;6188718;23;20005;-88
2023/08/02 01:02:09;;;;;;;7.68;3.75;;;16.70;99.90;;;;;;6214265;23;20028;-88
2023/08/02 01:04:36;;;;;;;7.60;3.70;;;16.70;99.90;;;;;;6214739;23;20001;-87
2023/08/02 01:07:15;;;;;;;6.40;3.58;;;16.70;99.90;;;;;;6214251;23;20071;-88
2023/08/02 01:09:57;;;;;;;6.80;4.00;;;16.80;99.90;;;;;;6214877;23;20001;-88
2023/08/02 01:12:24;;;;;;;7.07;3.78;;;16.80;99.90;;;;;;6213976;23;20008;-88
2023/08/02 01:14:55;;;;;;;8.25;3.72;;;16.80;99.90;;;;;;6215163;23;20008;-88
2023/08/02 01:17:24;;;;;;;10.80;4.45;;;16.80;99.90;;;;;;6214682;23;19996;-87
2023/08/02 01:19:49;;;;;;;8.88;4.35;;;16.80;99.90;;;;;;6214601;23;19997;-88
2023/08/02 01:22:15;;;;;;;9.32;4.45;;;16.80;99.90;;;;;;6214069;23;20012;-88
2023/08/02 01:24:40;;;;;;;8.75;3.60;;;16.80;99.90;;;;;;6214793;23;20032;-88
2023/08/02 01:27:12;;;;;;;9.05;3.70;;;16.80;99.90;;;;;;6213280;23;20004;-88
2023/08/02 01:29:46;;;;;;;6.57;3.70;;;16.70;99.90;;;;;;6214656;23;19997;-87
2023/08/02 01:32:12;;;;;;;7.05;4.00;;;16.70;99.90;;;;;;6187742;23;20032;-88
2023/08/02 01:34:39;;;;;;;10.45;4.03;;;16.70;99.90;;;;;;6214635;23;20004;-89
2023/08/02 01:37:05;;;;;;;7.60;3.72;;;16.70;99.90;;;;;;6214282;23;20120;-87
2023/08/02 01:39:30;;;;;;;7.60;3.25;;;16.70;99.90;;;;;;6214392;23;19997;-88
2023/08/02 01:41:56;;;;;;;9.73;4.15;;;16.60;99.90;;;;;;6225373;23;20004;-87
2023/08/02 01:44:21;;;;;;;7.60;4.15;;;16.60;99.90;;;;;;6193010;23;20091;-88
2023/08/02 01:46:47;;;;;;;8.77;3.95;;;16.60;99.90;;;;;;6214964;23;20001;-87
2023/08/02 01:49:12;;;;;;;9.02;3.70;;;16.60;99.90;;;;;;6214219;23;20016;-88
2023/08/02 01:51:38;;;;;;;6.93;4.32;;;16.50;99.90;;;;;;6214054;23;20008;-88
2023/08/02 01:54:04;;;;;;;9.00;4.22;;;16.50;99.90;;;;;;6213939;23;20017;-88
2023/08/02 01:56:29;;;;;;;8.48;3.97;;;16.50;99.90;;;;;;6213774;23;20052;-89
2023/08/02 01:58:55;;;;;;;8.80;3.83;;;16.60;99.90;;;;;;6214199;23;20024;-87
2023/08/02 02:01:21;;;;;;;7.80;3.50;;;16.60;99.90;;;;;;6213992;23;20437;-88
2023/08/02 02:03:46;;;;;;;8.63;3.10;;;16.60;99.90;;;;;;6214262;23;20000;-87
2023/08/02 02:06:12;;;;;;;7.88;3.10;;;16.60;99.90;;;;;;6218468;23;20052;-86
2023/08/02 02:08:37;;;;;;;11.10;3.60;;;16.70;99.90;;;;;;6221259;23;20079;-89
2023/08/02 02:11:04;;;;;;;8.30;3.58;;;16.70;99.90;;;;;;6189838;23;20426;-88
2023/08/02 02:13:30;;;;;;;9.82;3.20;;;16.70;99.90;;;;;;6222821;23;20023;-88
2023/08/02 02:15:56;;;;;;;8.73;3.28;;;16.60;99.90;;;;;;6218700;23;20422;-88
2023/08/02 02:18:21;;;;;;;7.88;3.78;;;16.60;99.90;;;;;;6214273;23;20012;-88
2023/08/02 02:20:47;;;;;;;7.22;4.20;;;16.60;99.90;;;;;;6214537;23;20007;-87
2023/08/02 02:23:12;;;;;;;6.13;3.70;;;16.60;99.90;;;;;;6213305;23;20007;-88
2023/08/02 02:25:38;;;;;;;5.30;3.50;;;16.60;99.90;;;;;;6213614;23;20016;-87
2023/08/02 02:28:04;;;;;;;11.68;3.60;;;16.60;99.90;;;;;;6213753;23;20000;-88
2023/08/02 02:30:30;;;;;;;9.63;3.88;;;16.60;99.90;;;;;;6213499;23;20031;-87
2023/08/02 02:32:56;;;;;;;7.47;3.72;;;16.60;99.90;;;;;;6213224;23;20007;-87
2023/08/02 02:35:21;;;;;;;5.95;3.63;;;16.60;99.90;;;;;;6187311;23;20013;-88
2023/08/02 02:37:47;;;;;;;5.28;3.13;;;16.60;99.90;;;;;;6213251;23;20031;-88
2023/08/02 02:40:13;;;;;;;7.68;3.15;;;16.60;99.90;;;;;;6212782;23;20024;-88
2023/08/02 02:42:40;;;;;;;6.95;3.42;;;16.60;99.90;;;;;;6213769;23;20051;-87
2023/08/02 02:45:07;;;;;;;8.20;3.33;;;16.60;99.90;;;;;;6213500;23;20005;-88
2023/08/02 02:47:32;;;;;;;4.70;3.22;;;16.60;99.90;;;;;;6187009;23;20004;-87
2023/08/02 02:49:58;;;;;;;4.65;2.60;;;16.60;99.90;;;;;;6213884;23;20316;-88
2023/08/02 02:52:23;;;;;;;5.82;3.33;;;16.70;99.90;;;;;;6213561;23;20009;-87
2023/08/02 02:54:49;;;;;;;6.13;2.60;;;16.60;99.90;;;;;;6218945;23;20005;-87
2023/08/02 02:57:16;;;;;;;7.82;3.58;;;16.60;99.90;;;;;;6226550;23;20554;-88
2023/08/02 02:59:42;;;;;;;6.82;3.10;;;16.70;99.90;;;;;;6228379;23;19996;-88
2023/08/02 03:02:08;;;;;;;6.28;3.22;;;16.70;99.90;;;;;;6220688;23;20438;-87
2023/08/02 03:04:33;;;;;;;8.88;3.58;;;16.70;99.90;;;;;;6214054;23;20060;-87
2023/08/02 03:06:59;;;;;;;7.00;3.05;;;16.70;99.90;;;;;;6187352;23;20311;-88
2023/08/02 03:09:25;;;;;;;5.28;2.92;;;16.70;99.90;;;;;;6212946;23;20071;-89
2023/08/02 03:11:50;;;;;;;6.90;2.97;;;16.70;99.90;;;;;;6213722;23;20084;-86
2023/08/02 03:14:16;;;;;;;8.93;3.85;;;16.70;99.90;;;;;;6213058;23;20020;-85
2023/08/02 03:16:44;;;;;;;4.65;2.80;;;16.70;99.90;;;;;;6186588;23;20619;-87
2023/08/02 03:19:11;;;;;;;8.90;3.70;;;16.70;99.90;;;;;;6213083;23;20429;-88
2023/08/02 03:21:37;;;;;;;7.32;2.67;;;16.80;99.90;;;;;;6213042;23;20090;-89
2023/08/02 03:24:02;;;;;;;5.57;2.22;;;16.80;99.90;;;;;;6186619;23;20004;-88
2023/08/02 03:26:28;;;;;;;8.85;3.83;;;16.80;99.90;;;;;;6213100;23;20032;-88
2023/08/02 03:28:54;;;;;;;8.35;3.38;;;16.80;99.90;;;;;;6213452;23;20011;-87
2023/08/02 03:31:19;;;;;;;5.00;2.78;;;16.80;99.90;;;;;;6212620;23;20005;-86
2023/08/02 03:33:45;;;;;;;8.32;2.72;;;16.70;99.90;;;;;;6186457;23;20012;-86
2023/08/02 03:36:10;;;;;;;9.00;3.20;;;16.70;99.90;;;;;;6212767;23;20048;-85
2023/08/02 03:38:36;;;;;;;6.00;2.97;;;16.70;99.90;;;;;;6212384;23;20788;-85
2023/08/02 03:41:02;;;;;;;5.47;3.15;;;16.70;99.90;;;;;;6212528;23;20470;-86
2023/08/02 03:43:27;;;;;;;6.03;2.63;;;16.70;99.90;;;;;;6212665;23;19993;-85
2023/08/02 03:45:53;;;;;;;6.60;3.22;;;16.80;99.90;;;;;;6212936;23;20001;-85
2023/08/02 03:48:19;;;;;;;2.90;2.60;;;16.80;99.90;;;;;;6185553;23;20426;-85
2023/08/02 03:50:44;;;;;;;5.05;2.65;;;16.80;99.90;;;;;;6215934;23;20001;-86
2023/08/02 03:53:10;;;;;;;7.80;3.28;;;16.90;99.90;;;;;;6214729;23;20016;-85
2023/08/02 03:55:35;;;;;;;4.97;3.03;;;16.90;99.90;;;;;;6215676;23;20007;-85
2023/08/02 03:58:01;;;;;;;6.90;3.30;;;16.90;99.90;;;;;;6215836;23;19997;-85
2023/08/02 04:00:27;;;;;;;5.30;3.38;;;17.00;99.90;;;;;;6216173;23;20084;-85
2023/08/02 04:02:54;;;;;;;4.20;2.67;;;16.90;99.90;;;;;;6216065;23;20035;-85
2023/08/02 04:05:19;;;;;;;7.30;4.15;;;16.90;99.90;;;;;;6188598;23;20028;-85
2023/08/02 04:07:45;;;;;;;6.68;3.78;;;16.90;99.90;;;;;;6189656;23;20442;-86
2023/08/02 04:10:10;;;;;;;7.47;3.28;;;16.90;99.90;;;;;;6189301;23;20005;-84
2023/08/02 04:12:36;;;;;;;7.38;3.13;;;16.90;99.90;;;;;;6217438;23;20004;-86
2023/08/02 04:15:03;;;;;;;8.63;3.90;;;16.90;99.90;;;;;;6218233;23;20036;-86
2023/08/02 04:17:28;;;;;;;6.88;2.90;;;16.90;99.90;;;;;;6220427;23;20000;-86
2023/08/02 04:19:54;;;;;;;6.63;3.55;;;17.00;99.90;;;;;;6193220;23;20001;-86
2023/08/02 04:22:20;;;;;;;7.35;3.30;;;17.00;99.90;;;;;;6189511;23;20056;-86
2023/08/02 04:24:45;;;;;;;5.28;3.38;;;17.00;99.90;;;;;;6216378;23;20079;-86
2023/08/02 04:27:11;;;;;;;8.85;3.60;;;17.10;99.90;;;;;;6215809;23;20326;-86
2023/08/02 04:29:36;;;;;;;5.93;3.45;;;17.10;99.90;;;;;;6216529;23;20032;-84
2023/08/02 04:32:02;;;;;;;6.00;3.05;;;17.10;99.90;;;;;;6215924;23;20000;-86
2023/08/02 04:34:28;;;;;;;5.32;3.53;;;17.10;99.90;;;;;;6215985;23;20004;-86
2023/08/02 04:36:53;;;;;;;6.13;2.72;;;17.10;99.90;;;;;;6216134;23;20426;-85
2023/08/02 04:39:19;;;;;;;6.32;3.67;;;17.20;99.90;;;;;;6215860;23;20000;-86
2023/08/02 04:41:44;;;;;;;5.72;3.38;;;17.30;99.90;;;;;;6220410;23;20007;-86
2023/08/02 04:44:10;;;;;;;6.85;3.80;;;17.30;99.90;;;;;;6222087;23;20011;-86
2023/08/02 04:46:35;;;;;;;8.93;3.78;;;17.30;99.90;;;;;;6191767;23;20058;-85
2023/08/02 04:49:01;;;;;;;4.97;3.42;;;17.30;99.90;;;;;;6216425;23;20001;-86
2023/08/02 04:51:27;;;;;;;4.38;2.58;;;17.30;99.90;;;;;;6221934;23;20039;-85
2023/08/02 04:53:53;;;;;;;8.07;3.50;;;17.30;99.90;;;;;;6222112;23;20009;-85
2023/08/02 04:56:18;;;;;;;8.43;3.28;;;17.40;99.90;;;;;;6217826;23;20004;-84
2023/08/02 04:58:44;;;;;;;5.70;3.25;;;17.40;99.90;;;;;;6217150;23;20005;-86
2023/08/02 05:01:10;;;;;;;8.95;3.50;;;17.40;99.90;;;;;;6215609;23;20001;-87
2023/08/02 05:03:36;;;;;;;9.13;3.03;;;17.40;99.90;;;;;;6215283;23;20326;-87
2023/08/02 05:06:03;;;;;;;8.68;2.83;;;17.40;99.90;;;;;;6214295;23;20112;-86
2023/08/02 05:08:31;;;;;;;5.10;2.67;;;17.40;99.90;;;;;;6187724;23;20008;-85
2023/08/02 05:10:57;;;;;;;5.75;3.15;;;17.50;99.90;;;;;;6214009;23;20007;-87
2023/08/02 05:13:23;;;;;;;8.18;3.38;;;17.50;99.90;;;;;;6187750;23;20028;-86
2023/08/02 05:15:49;;;;;;;4.38;2.70;;;17.50;99.90;;;;;;6187689;23;20686;-86
2023/08/02 05:18:16;;;;;;;4.70;3.10;;;17.50;99.90;;;;;;6213043;23;20028;-84
2023/08/02 05:20:41;;;;;;;6.47;3.03;;;17.50;99.90;;;;;;6188146;23;20005;-85
2023/08/02 05:23:07;;;;;;;6.45;2.53;;;17.50;99.90;;;;;;6217196;23;20314;-86
2023/08/02 05:25:34;;;;;;;4.03;2.63;;;17.50;99.90;;;;;;6223022;23;20054;-86
2023/08/02 05:28:00;;;;;;;13.55;3.33;;;17.50;99.90;;;;;;6216069;23;20075;-85
2023/08/02 05:30:27;;;;;;;8.05;3.42;;;17.50;99.90;;;;;;6214503;23;20007;-85
2023/08/02 05:32:54;;;;;;;8.25;3.47;;;17.60;99.90;;;;;;6187403;23;20043;-86
2023/08/02 05:35:19;;;;;;;5.90;3.53;;;17.60;99.90;;;;;;6187224;23;20009;-86
2023/08/02 05:37:45;;;;;;;5.20;2.85;;;17.60;99.90;;;;;;6214514;23;20011;-86
2023/08/02 05:40:11;;;;;;;4.05;2.55;;;17.60;99.90;;;;;;6187059;23;20307;-85
2023/08/02 05:42:37;;;;;;;6.57;3.30;;;17.70;99.90;;;;;;6187551;23;20005;-86
2023/08/02 05:45:02;;;;;;;6.00;3.25;;;17.60;99.90;;;;;;6213975;23;20013;-86
2023/08/02 05:47:28;;;;;;;6.63;3.47;;;17.70;99.90;;;;;;6213907;23;20004;-85
2023/08/02 05:49:54;;;;;;;7.78;3.70;;;17.70;99.90;;;;;;6187614;23;20371;-84
2023/08/02 05:52:19;;;;;;;6.53;2.92;;;17.70;99.90;;;;;;6213713;23;20078;-86
2023/08/02 05:54:45;;;;;;;2.92;2.50;;;17.70;99.90;;;;;;6214053;23;20024;-87
2023/08/02 05:57:10;;;;;;;5.75;4.18;;;17.70;99.90;;;;;;6214039;23;20068;-87
2023/08/02 05:59:37;;;;;;;5.57;3.03;;;17.70;99.90;;;;;;6214250;23;20016;-87
2023/08/02 06:02:07;;;;;;;5.70;3.90;;;17.60;99.90;;;;;;6212751;23;20029;-83
2023/08/02 06:04:35;;;;;;;6.50;3.15;;;17.60;99.90;;;;;;6213864;23;20000;-86
2023/08/02 06:07:01;;;;;;;4.35;3.22;;;17.60;99.90;;;;;;6213841;23;20007;-86
2023/08/02 06:09:27;;;;;;;7.70;2.92;;;17.60;99.90;;;;;;6214238;23;20024;-86
2023/08/02 06:11:52;;;;;;;6.03;3.97;;;17.60;99.90;;;;;;6213394;23;20445;-77
2023/08/02 06:14:18;;;;;;;8.82;3.90;;;17.60;99.90;;;;;;6212805;23;20036;-77
2023/08/02 06:16:43;;;;;;;6.97;3.95;;;17.50;99.90;;;;;;6212397;23;19996;-77
2023/08/02 06:19:09;;;;;;;7.93;4.25;;;17.50;99.90;;;;;;6212584;23;20000;-77
2023/08/02 06:21:36;;;;;;;8.98;4.40;;;17.50;99.90;;;;;;6212730;23;20296;-78
2023/08/02 06:24:02;;;;;;;5.72;4.07;;;17.50;99.90;;;;;;6212385;23;20021;-78
2023/08/02 06:26:28;;;;;;;9.23;4.93;;;17.40;99.90;;;;;;6212619;23;20005;-77
2023/08/02 06:28:54;;;;;;;8.95;4.35;;;17.40;99.90;;;;;;6212839;23;20000;-78
2023/08/02 06:31:20;;;;;;;6.78;3.75;;;17.40;99.90;;;;;;6211617;23;20426;-77
2023/08/02 06:33:46;;;;;;;7.10;4.95;;;17.40;99.90;;;;;;6212540;23;20003;-77
2023/08/02 06:36:12;;;;;;;9.95;4.78;;;17.30;99.90;;;;;;6212338;23;20000;-77
2023/08/02 06:38:37;;;;;;;4.28;3.35;;;17.40;99.90;;;;;;6212093;23;20079;-76
2023/08/02 06:41:03;;;;;;;7.90;4.22;;;17.30;99.90;;;;;;6212369;23;20434;-77
2023/08/02 06:43:29;;;;;;;6.03;3.65;;;17.40;99.90;;;;;;6210840;23;20024;-77
2023/08/02 06:45:54;;;;;;;7.70;4.07;;;17.40;99.90;;;;;;6212122;23;20415;-76
2023/08/02 06:48:23;;;;;;;6.32;3.90;;;17.40;99.90;;;;;;6211877;23;20004;-76
2023/08/02 06:50:50;;;;;;;7.55;4.13;;;17.40;99.90;;;;;;6212527;23;20063;-77
2023/08/02 06:53:15;;;;;;;7.00;4.10;;;17.40;99.90;;;;;;6211883;23;20027;-77
2023/08/02 06:55:41;;;;;;;10.60;4.75;;;17.30;99.90;;;;;;6212165;23;20079;-77
2023/08/02 06:58:06;;;;;;;7.20;4.97;;;17.30;99.90;;;;;;6212160;23;20029;-77
2023/08/02 07:00:35;;;;;;;10.43;3.97;;;17.40;99.90;;;;;;6211870;23;20000;-76
2023/08/02 07:03:02;;;;;;;8.38;5.43;;;17.40;99.90;;;;;;6212377;23;20001;-77
2023/08/02 07:05:29;;;;;;;6.90;4.82;;;17.40;99.90;;;;;;6208910;23;20325;-77
2023/08/02 07:08:02;;;;;;;8.07;4.57;;;17.40;99.90;;;;;;6212226;23;20004;-76
2023/08/02 07:10:29;;;;;;;8.10;4.18;;;17.50;99.90;;;;;;6209779;23;20008;-76
2023/08/02 07:12:55;;;;;;;9.38;4.20;;;17.50;99.90;;;;;;6210461;23;20000;-76
2023/08/02 07:15:21;;;;;;;8.32;4.13;;;17.50;99.90;;;;;;6211162;23;20044;-77
2023/08/02 07:17:47;;;;;;;8.77;4.68;;;17.50;99.90;;;;;;6184722;23;20001;-76
2023/08/02 07:20:14;;;;;;;4.43;3.65;;;17.50;99.90;;;;;;6211832;23;20104;-78
2023/08/02 07:22:41;;;;;;;5.53;3.60;;;17.50;99.90;;;;;;6210206;23;20076;-77
2023/08/02 07:25:08;;;;;;;5.25;3.05;;;17.40;99.90;;;;;;6211221;23;20457;-77
2023/08/02 07:27:33;;;;;;;5.53;4.07;;;17.40;99.90;;;;;;6212080;23;20009;-76
2023/08/02 07:29:59;;;;;;;4.85;4.15;;;17.40;99.90;;;;;;6211395;23;20028;-77
2023/08/02 07:32:25;;;;;;;5.60;3.30;;;17.50;99.90;;;;;;6211113;23;20055;-77
2023/08/02 07:34:51;;;;;;;6.82;3.58;;;17.50;99.90;;;;;;6210286;23;20092;-77
2023/08/02 07:37:17;;;;;;;4.25;3.17;;;17.50;99.90;;;;;;6211107;23;20036;-77
2023/08/02 07:39:42;;;;;;;5.22;3.15;;;17.50;99.90;;;;;;6211753;23;20015;-77
2023/08/02 07:42:08;;;;;;;4.70;2.92;;;17.60;99.90;;;;;;6211628;23;20000;-77
2023/08/02 07:44:35;;;;;;;5.35;3.20;;;17.60;99.90;;;;;;6209867;23;20004;-78
2023/08/02 07:47:01;;;;;;;5.63;2.88;;;17.60;99.90;;;;;;6211294;23;20063;-77
2023/08/02 07:49:26;;;;;;;4.18;3.35;;;17.70;99.90;;;;;;6211030;23;20385;-76
2023/08/02 07:51:53;;;;;;;4.75;2.78;;;17.70;99.90;;;;;;6211949;23;20366;-77
2023/08/02 07:54:19;;;;;;;3.70;2.10;;;17.60;99.90;;;;;;6210609;23;20666;-78
2023/08/02 07:56:44;;;;;;;4.78;2.58;;;17.70;99.90;;;;;;6210599;23;19997;-77
2023/08/02 07:59:10;;;;;;;4.95;2.45;;;17.70;99.90;;;;;;6183105;23;20134;-77
2023/08/02 08:01:36;;;;;;;2.53;2.25;;;17.70;99.90;;;;;;6211786;23;19997;-78
2023/08/02 08:04:01;;;;;;;4.22;2.05;;;17.80;99.90;;;;;;6210145;23;20083;-77
2023/08/02 08:06:27;;;;;;;3.42;1.92;;;17.80;99.90;;;;;;6210309;23;20011;-77
2023/08/02 08:08:53;;;;;;;2.97;1.98;;;17.80;99.90;;;;;;6211130;23;20048;-77
2023/08/02 08:11:18;;;;;;;3.80;2.13;;;17.80;99.90;;;;;;6210999;23;20001;-77
2023/08/02 08:13:44;;;;;;;3.55;1.80;;;17.80;99.90;;;;;;6184023;23;20088;-78
2023/08/02 08:16:10;;;;;;;2.97;1.90;;;17.80;99.90;;;;;;6210721;23;20028;-78
2023/08/02 08:18:36;;;;;;;3.40;2.20;;;17.90;99.90;;;;;;6207916;23;19996;-78
2023/08/02 08:21:03;;;;;;;2.95;1.77;;;18.00;99.90;;;;;;6209918;23;20017;-78
2023/08/02 08:23:32;;;;;;;1.90;1.42;;;18.00;99.90;;;;;;6209907;23;20000;-77
2023/08/02 08:25:58;;;;;;;2.30;1.52;;;18.00;99.90;;;;;;6210112;23;20009;-78
2023/08/02 08:28:24;;;;;;;2.30;1.52;;;18.00;99.90;;;;;;6209007;23;20008;-77
2023/08/02 08:30:57;;;;;;;2.00;1.15;;;18.00;99.90;;;;;;6183460;23;20009;-78
2023/08/02 08:33:22;;;;;;;5.18;1.52;;;18.00;99.90;;;;;;6210388;23;20084;-78
2023/08/02 08:35:48;;;;;;;2.67;1.10;;;18.00;99.90;;;;;;6209894;23;20047;-78
2023/08/02 08:38:13;;;;;;;1.38;1.10;;;18.10;99.90;;;;;;6212481;23;20005;-78
2023/08/02 08:40:39;;;;;;;2.47;1.10;;;18.20;99.90;;;;;;6210118;23;20001;-78
2023/08/02 08:43:05;;;;;;;1.80;1.30;;;18.30;99.90;;;;;;6211137;23;20032;-78
2023/08/02 08:45:31;;;;;;;1.20;0.90;;;18.30;99.90;;;;;;6212987;23;20004;-79
2023/08/02 08:47:57;;;;;;;2.22;1.13;;;18.40;99.90;;;;;;6213280;23;20441;-78
2023/08/02 08:50:23;;;;;;;1.15;0.98;;;18.40;99.90;;;;;;6211740;23;20005;-79
2023/08/02 08:52:51;;;;;;;2.30;1.00;;;18.40;99.90;;;;;;6212942;23;20016;-79
2023/08/02 08:55:17;;;;;;;1.15;0.82;;;18.40;99.90;;;;;;6212135;23;20012;-79
2023/08/02 08:57:45;;;;;;;2.00;0.80;;;18.50;99.90;;;;;;6212760;23;19999;-79
2023/08/02 09:00:13;;;;;;;2.88;0.85;;;18.50;99.90;;;;;;6212487;23;19997;-80
2023/08/02 09:02:39;;;;;;;2.53;0.88;;;18.50;99.90;;;;;;6211579;23;20012;-79
2023/08/02 09:05:06;;;;;;;2.10;0.98;;;18.50;99.90;;;;;;6212887;23;20419;-79
2023/08/02 09:07:32;;;;;;;1.15;0.60;;;18.50;99.90;;;;;;6213215;23;20071;-79
2023/08/02 09:09:57;;;;;;;1.85;0.88;;;18.60;99.90;;;;;;6212479;23;20354;-78
2023/08/02 09:12:27;;;;;;;1.00;0.57;;;18.60;99.90;;;;;;6210902;23;20051;-78
2023/08/02 09:15:04;;;;;;;1.05;0.60;;;18.60;99.90;;;;;;6212906;23;20020;-78
2023/08/02 09:17:51;;;;;;;1.13;0.75;;;18.60;99.90;;;;;;6186706;23;20506;-80
2023/08/02 09:20:22;;;;;;;0.85;0.60;;;18.60;99.90;;;;;;6211876;23;20001;-78
2023/08/02 09:22:48;;;;;;;0.80;0.80;;;18.60;99.90;;;;;;6211430;23;20062;-82
2023/08/02 09:25:27;;;;;;;0.90;0.63;;;18.70;99.90;;;;;;6211191;23;20431;-82
2023/08/02 09:27:55;;;;;;;0.60;0.52;;;18.90;99.90;;;;;;6213440;23;20005;-84
2023/08/02 09:30:25;;;;;;;2.22;0.77;;;19.00;99.90;;;;;;6188173;23;20389;-82
2023/08/02 09:33:05;;;;;;;1.00;0.70;;;19.10;99.90;;;;;;6213887;23;20000;-82
2023/08/02 09:35:52;;;;;;;2.17;0.95;;;19.30;99.90;;;;;;6185033;23;20055;-82
2023/08/02 09:38:19;;;;;;;1.58;1.17;;;19.40;99.90;;;;;;6212646;23;20005;-82
2023/08/02 09:40:47;;;;;;;1.38;1.00;;;19.60;99.90;;;;;;6212354;23;20063;-82
2023/08/02 09:43:15;;;;;;;1.30;0.90;;;19.80;99.90;;;;;;6212221;23;20001;-82
2023/08/02 09:45:41;;;;;;;1.17;1.08;;;20.00;99.90;;;;;;6211193;23;20430;-82
2023/08/02 09:48:06;;;;;;;1.67;1.30;;;20.10;99.90;;;;;;6211852;23;20064;-82
2023/08/02 09:50:33;;;;;;;1.27;1.13;;;20.20;99.90;;;;;;6213008;23;20016;-83
2023/08/02 09:53:15;;;;;;;1.35;1.10;;;20.30;99.90;;;;;;6212115;23;20516;-81
2023/08/02 09:55:44;;;;;;;1.20;1.10;;;20.40;99.90;;;;;;6211680;23;20005;-79
2023/08/02 09:58:12;;;;;;;2.08;1.75;;;20.60;99.90;;;;;;6212151;23;20020;-79
2023/08/02 10:00:39;;;;;;;2.00;1.80;;;20.70;99.90;;;;;;6212858;23;20055;-81
2023/08/02 10:03:06;;;;;;;1.88;1.48;;;20.90;99.90;;;;;;6212603;23;19997;-81
2023/08/02 10:05:32;;;;;;;1.42;1.33;;;21.10;99.90;;;;;;6212907;23;20001;-81
2023/08/02 10:07:58;;;;;;;2.65;1.70;;;21.40;99.90;;;;;;6211493;23;20102;-81
2023/08/02 10:10:30;;;;;;;1.77;1.48;;;21.70;99.90;;;;;;6212218;23;20365;-81
2023/08/02 10:13:04;;;;;;;1.77;1.50;;;21.80;99.90;;;;;;6212180;23;20009;-81
2023/08/02 10:15:30;;;;;;;1.65;1.55;;;22.00;99.90;;;;;;6185888;23;20326;-80
2023/08/02 10:17:58;;;;;;;1.85;1.75;;;22.00;99.90;;;;;;6211257;23;20032;-81
2023/08/02 10:20:24;;;;;;;1.83;1.35;;;22.10;99.90;;;;;;6212053;23;20000;-82
2023/08/02 10:22:51;;;;;;;2.67;1.70;;;22.00;99.90;;;;;;6212052;23;20373;-81
2023/08/02 10:25:18;;;;;;;1.90;1.67;;;21.90;99.90;;;;;;6211580;23;20004;-81
2023/08/02 10:27:46;;;;;;;5.57;2.50;;;22.00;99.90;;;;;;6212558;23;20411;-82
2023/08/02 10:30:12;;;;;;;3.33;2.50;;;22.00;99.90;;;;;;6210603;23;20011;-81
2023/08/02 10:32:38;;;;;;;1.95;1.73;;;22.20;99.90;;;;;;6212204;23;20446;-82
2023/08/02 10:35:04;;;;;;;1.73;1.50;;;22.40;99.90;;;;;;6212066;23;20001;-82
2023/08/02 10:37:53;;;;;;;1.60;1.50;;;22.50;99.90;;;;;;6211430;23;20001;-80
2023/08/02 10:40:21;;;;;;;1.48;1.38;;;22.60;99.90;;;;;;6210131;23;20334;-81
2023/08/02 10:43:04;;;;;;;2.40;1.77;;;22.70;99.90;;;;;;6212171;23;20430;-81
2023/08/02 10:45:30;;;;;;;2.00;1.73;;;22.80;99.90;;;;;;6212110;23;20054;-81
2023/08/02 10:48:25;;;;;;;2.10;2.00;;;22.90;99.90;;;;;;6211760;23;20083;-81
2023/08/02 10:50:52;;;;;;;1.42;1.33;;;23.00;99.90;;;;;;6210133;23;20694;-81
2023/08/02 10:53:18;;;;;;;1.48;1.38;;;23.00;99.90;;;;;;6209788;23;20012;-81
2023/08/02 10:56:04;;;;;;;1.90;1.80;;;23.10;99.90;;;;;;6211435;23;20017;-81
2023/08/02 10:58:52;;;;;;;1.65;1.55;;;23.10;99.90;;;;;;6211397;23;20027;-82
2023/08/02 11:01:18;;;;;;;2.08;1.70;;;23.10;99.90;;;;;;6209991;23;20035;-81
2023/08/02 11:03:44;;;;;;;1.40;1.30;;;23.20;99.90;;;;;;6211249;23;19997;-81
2023/08/02 11:06:26;;;;;;;2.55;1.60;;;23.30;99.90;;;;;;6184497;23;20079;-82
2023/08/02 11:08:52;;;;;;;2.42;1.17;;;23.50;99.90;;;;;;6212293;23;20007;-82
2023/08/02 11:11:29;;;;;;;0.80;0.70;;;23.70;99.90;;;;;;6211487;23;20024;-82
2023/08/02 11:13:54;;;;;;;1.40;1.00;;;23.80;99.90;;;;;;6210561;23;20004;-82
2023/08/02 11:16:20;;;;;;;1.30;0.93;;;23.80;99.90;;;;;;6211034;23;20001;-82
2023/08/02 11:18:47;;;;;;;1.02;0.88;;;23.70;99.90;;;;;;6211459;23;20075;-82
2023/08/02 11:21:14;;;;;;;0.75;0.75;;;23.50;99.90;;;;;;6210894;23;20411;-81
2023/08/02 11:23:40;;;;;;;0.90;0.88;;;23.30;99.90;;;;;;6210918;23;20414;-82
2023/08/02 11:26:11;;;;;;;1.88;0.80;;;23.10;99.90;;;;;;6210682;23;20004;-82
2023/08/02 11:28:48;;;;;;;0.95;0.90;;;23.10;99.90;;;;;;6184872;23;20039;-81
2023/08/02 11:31:14;;;;;;;1.52;0.70;;;22.90;99.90;;;;;;6211413;23;20005;-82
2023/08/02 11:33:40;;;;;;;0.88;0.82;;;22.80;99.90;;;;;;6211774;23;20100;-82
2023/08/02 11:36:06;;;;;;;1.02;0.93;;;22.70;99.90;;;;;;6209249;23;20430;-82
2023/08/02 11:38:32;;;;;;;2.78;1.40;;;22.50;99.90;;;;;;6212009;23;20715;-83
2023/08/02 11:40:58;;;;;;;1.50;1.30;;;22.30;99.90;;;;;;6211755;23;20031;-83
2023/08/02 11:43:38;;;;;;;1.50;1.02;;;22.20;99.90;;;;;;6211508;23;20047;-81
2023/08/02 11:46:18;;;;;;;1.77;1.08;;;22.10;99.90;;;;;;6209894;23;20485;-80
2023/08/02 11:48:44;;;;;;;2.97;1.70;;;22.10;99.90;;;;;;6211911;23;20012;-81
2023/08/02 11:51:11;;;;;;;2.13;1.73;;;22.10;99.90;;;;;;6210715;23;20335;-80
2023/08/02 11:53:55;;;;;;;2.30;2.08;;;22.00;99.90;;;;;;6211483;23;20012;-81
2023/08/02 11:56:21;;;;;;;;;;;22.00;99.90;;;;;;6211668;23;20062;-81
2023/08/02 11:58:48;;;;;;;2.13;1.92;;;22.00;99.90;;;;;;6210899;23;19904;-81
2023/08/02 12:01:14;;;;;;;3.25;2.38;;;22.10;99.90;;;;;;6211295;23;20008;-81
2023/08/02 12:03:58;;;;;;;2.30;1.85;;;22.10;99.90;;;;;;6211832;23;20000;-81
2023/08/02 12:06:25;;;;;;;2.25;1.75;;;22.20;99.90;;;;;;6211372;23;20080;-81
2023/08/02 12:08:53;;;;;;;2.15;1.13;;;22.30;99.90;;;;;;6209569;23;20004;-84
2023/08/02 12:11:19;;;;;;;1.92;1.00;;;22.50;99.90;;;;;;6208904;23;20067;-83
2023/08/02 12:13:45;;;;;;;1.10;0.80;;;22.70;99.90;;;;;;6209600;23;20385;-81
2023/08/02 12:16:13;;;;;;;1.00;0.90;;;22.90;99.90;;;;;;6185350;23;20009;-82
2023/08/02 12:18:53;;;;;;;0.50;0.50;;;23.00;99.90;;;;;;6210988;23;20571;-80
2023/08/02 12:21:18;;;;;;;0.52;0.52;;;23.10;99.90;;;;;;6183840;23;20095;-80
2023/08/02 12:23:44;;;;;;;2.35;1.00;;;23.00;99.90;;;;;;6213580;23;20039;-76
2023/08/02 12:26:10;;;;;;;1.02;0.85;;;22.90;99.90;;;;;;6210977;23;20478;-82
2023/08/02 12:28:46;;;;;;;2.38;1.17;;;23.00;99.90;;;;;;6213098;23;20012;-80
2023/08/02 12:31:12;;;;;;;0.70;0.60;;;23.10;99.90;;;;;;6212148;23;20004;-79
2023/08/02 12:33:38;;;;;;;1.00;0.90;;;23.20;99.90;;;;;;6212069;23;19996;-80
2023/08/02 12:36:04;;;;;;;2.28;0.80;;;23.20;99.90;;;;;;6212397;23;20011;-81
2023/08/02 12:38:30;;;;;;;2.30;0.70;;;23.20;99.90;;;;;;6212722;23;19997;-82
2023/08/02 12:41:00;;;;;;;1.90;0.73;;;23.30;99.90;;;;;;6211479;23;20013;-79
2023/08/02 12:43:26;;;;;;;3.65;1.63;;;23.40;99.90;;;;;;6213002;23;20024;-81
2023/08/02 12:45:52;;;;;;;4.85;1.42;;;23.50;99.90;;;;;;6212433;23;20068;-82
2023/08/02 12:48:18;;;;;;;4.00;1.25;;;23.50;99.90;;;;;;6211836;23;20005;-78